ADDS METAR Data INFO
IDs: Format: Raw Decoded Include TAF

Data at: 1733 UTC 15 Dec 2017

KTCC 151653Z AUTO 24017KT 10SM CLR 07/M04 A3023 RMK AO2 SLP233 T00721039
KTCC 151553Z AUTO 26005KT 10SM CLR 01/M03 A3025 RMK AO2 SLP249 T00111033
KTCC 151453Z AUTO 24004KT 10SM CLR M03/M06 A3025 RMK AO2 SLP255 T10331056 56007
KTCC 151353Z AUTO 24006KT 10SM CLR M07/M08 A3025 RMK AO2 SLP262 T10671078
KTCC 151253Z AUTO 23004KT 10SM CLR M06/M07 A3026 RMK AO2 SLP263 T10561072
KTCC 151153Z AUTO 23004KT 10SM CLR M05/M06 A3027 RMK AO2 SLP262 T10501061 10022 21061 58010
KTCC 151053Z AUTO 28009KT 10SM CLR M03/M04 A3029 RMK AO2 SLP261 T10281044
KTCC 150953Z AUTO 27006KT 10SM CLR M05/M07 A3029 RMK AO2 SLP265 T10501067
KTCC 150853Z AUTO 27005KT 10SM CLR M03/M04 A3030 RMK AO2 SLP265 T10281044 55005
KTCC 150753Z AUTO 25004KT 10SM CLR M03/M04 A3030 RMK AO2 SLP263 T10281044
KTCC 150653Z AUTO 23003KT 10SM CLR 00/M02 A3031 RMK AO2 SLP264 T00001022 401061033
KTCC 150553Z AUTO 00000KT 10SM BKN034 OVC060 02/M02 A3032 RMK AO2 SLP267 T00171017 10056 20017 51016
KTCC 150453Z AUTO 06010KT 10SM FEW033 OVC070 02/M02 A3032 RMK AO2 SLP266 T00221022
KTCC 150353Z AUTO 05005KT 10SM FEW042 OVC060 03/M03 A3029 RMK AO2 SLP261 T00281033
KTCC 150253Z AUTO 04004KT 10SM OVC060 03/M04 A3027 RMK AO2 SLP258 T00281039 51025
KTCC 150153Z AUTO 05008KT 10SM FEW110 03/M04 A3025 RMK AO2 SLP254 T00331039
KTCC 150053Z AUTO 05008KT 10SM BKN070 OVC100 04/M04 A3022 RMK AO2 SLP239 T00441044
KTCC 142353Z AUTO 05013KT 10SM BKN060 06/M04 A3019 RMK AO2 SLP225 T00561039 10106 20056 53010
KTCC 142253Z AUTO 05011KT 10SM BKN060 08/M05 A3016 RMK AO2 SLP213 T00831050
KTCC 142153Z AUTO VRB04KT 10SM FEW055 09/M05 A3015 RMK AO2 SLP208 T00891050
KTCC 142053Z AUTO 06008KT 10SM CLR 09/M05 A3015 RMK AO2 SLP208 T00941050 56022
KTCC 141953Z AUTO 03008KT 10SM CLR 09/M06 A3017 RMK AO2 SLP215 T00941061
KTCC 141853Z AUTO 06011KT 10SM CLR 08/M07 A3019 RMK AO2 SLP226 T00831072
KTCC 141753Z AUTO 06013KT 10SM CLR 07/M08 A3022 RMK AO2 SLP238 T00721078 10078 21033 50012
KTCC 141653Z AUTO 05013G22KT 10SM CLR 06/M07 A3024 RMK AO2 SLP241 T00611067
KTCC 141553Z AUTO 05009KT 10SM CLR 04/M08 A3021 RMK AO2 SLP235 T00391078
KTCC 141453Z AUTO 04008KT 10SM CLR 01/M08 A3018 RMK AO2 SLP228 T00061083 51031
KTCC 141353Z AUTO 02009KT 10SM CLR M03/M09 A3015 RMK AO2 SLP219 T10281094
KTCC 141253Z AUTO 04009KT 10SM CLR M01/M09 A3011 RMK AO2 SLP202 T10061094
KTCC 141153Z AUTO 02010KT 10SM CLR M01/M09 A3008 RMK AO2 SLP181 T10061094 11006 21039 53016
KTCC 141053Z AUTO 02008KT 10SM CLR M02/M10 A3005 RMK AO2 SLP165 T10171100
KTCC 140953Z AUTO 36010KT 10SM CLR M01/M09 A3004 RMK AO2 SLP158 T10111094
KTCC 140853Z AUTO 36008KT 10SM CLR M01/M09 A3002 RMK AO2 SLP151 T10111094 53009
KTCC 140753Z AUTO 35009KT 10SM CLR M02/M10 A3000 RMK AO2 SLP142 T10221100
KTCC 140653Z AUTO 00000KT 10SM CLR M03/M12 A2998 RMK AO2 SLP138 T10281117 401831033
KTCC 140553Z AUTO 00000KT 10SM CLR M02/M12 A2999 RMK AO2 SLP145 T10171117 10094 21022 58001